Leburn, Kentucky
Current Conditions -  °F | °C
As of 10:53 AM on Saturday 25 Oct 2014 (Local Time) from KJKL Reporting Station
Clear Clear  
Wind Chill: 54°   Ceiling: Unl
Heat Index: 54°   Visibility: 10mi
Dew Point: 44°   Wind: 0mph
Humidity: 69%   Direction: NA
Pressure: 30.07"   Gusts: NA
Location:  37.35°N, 82.96°W
Report Text: KJKL 251453Z AUTO 00000KT 10SM CLR 12/07 A3007 RMK AO2 SLP181 T01220067 51004
Loading
Personal Weather Stations






























Interactive Weather Map
Tropical Storm Tracking
New forecast layout! Learn more

10-Day Weather Forecast

Advertisements
Track Severe Weather on mobile